KFKL/FKL METAR and TAF weather

Enter ICAO airport designator
Station Type Date Time Source
KFKL METAR 2020/02/21 02:56 UTC NOAA

KFKL 210256Z AUTO 31004KT 10SM OVC033 M09/M14 A3049 RMK AO2 SNB02E50 SLP353 P0000 60000 T10891144 51008 FZRANO


Station Type Date Time Source
KFKL Decoded METAR 2020/02/21 02:56 UTC NOAA

Franklin, Venango Regional Airport, PA, United States (KFKL) 41-23N 079-52W
Feb 20, 2020 - 09:56 PM EST / 2020.02.21 0256 UTC
Wind: from the NW (310 degrees) at 5 MPH (4 KT):0
Visibility: 10 mile(s):0
Sky conditions: overcast
Precipitation last hour: A trace
Temperature: 16.0 F (-8.9 C)
Windchill: 8 F (-13 C):1
Dew Point: 6.1 F (-14.4 C)
Relative Humidity: 64%
Pressure (altimeter): 30.49 in. Hg (1032 hPa)
Pressure tendency: 0.02 inches (0.8 hPa) higher than three hours ago
ob: KFKL 210256Z AUTO 31004KT 10SM OVC033 M09/M14 A3049 RMK AO2 SNB02E50 SLP353 P0000 60000 T10891144 51008 FZRANO
cycle: 3

Station Type Date Time Source
KFKL TAF 2020/02/20 18:24 UTC NOAA

TAF KFKL 201721Z 2018/2118 35005KT 5SM -SN OVC020
FM202000 32007KT P6SM BKN050
FM210300 VRB03KT P6SM BKN250
FM211500 27003KT P6SM SKC

Example: see airport list